Time;durP1;ratioP1;P1;durP2;ratioP2;P2;SDS_P1;SDS_P2;PMS_P1;PMS_P2;Temp;Humidity;BMP_temperature;BMP_pressure;BME280_temperature;BME280_humidity;BME280_pressure;Samples;Min_cycle;Max_cycle;Signal;HPM_P1;HPM_P2
2022/11/17 00:01:21;;;;;;;3.90;1.33;;;17.60;99.90;;;;;;5099262;28;20061;-81
2022/11/17 00:03:48;;;;;;;4.18;1.38;;;17.50;99.90;;;;;;5112177;28;20028;-81
2022/11/17 00:06:15;;;;;;;4.28;1.17;;;17.60;99.90;;;;;;5096422;28;20024;-80
2022/11/17 00:08:42;;;;;;;4.22;1.20;;;17.70;99.90;;;;;;5116222;28;20030;-80
2022/11/17 00:14:31;;;;;;;5.57;1.50;;;17.80;99.90;;;;;;5116003;28;20043;-80
2022/11/17 00:16:58;;;;;;;6.43;1.33;;;17.80;99.90;;;;;;5115991;28;20023;-80
2022/11/17 00:22:08;;;;;;;7.88;1.58;;;17.60;99.90;;;;;;5115892;28;20412;-81
2022/11/17 00:24:34;;;;;;;6.70;1.70;;;17.60;99.90;;;;;;5116212;28;20110;-80
2022/11/17 00:27:00;;;;;;;5.35;1.42;;;17.50;99.90;;;;;;5116259;28;20031;-80
2022/11/17 00:29:27;;;;;;;7.53;1.42;;;17.50;99.90;;;;;;5115895;28;20046;-80
2022/11/17 00:34:37;;;;;;;8.90;1.40;;;17.50;99.90;;;;;;5115974;28;19934;-80
2022/11/17 00:37:05;;;;;;;9.52;1.48;;;17.50;99.90;;;;;;5115780;28;20120;-80
2022/11/17 00:39:49;;;;;;;10.30;2.15;;;17.50;99.90;;;;;;5097089;28;20356;-81
2022/11/17 00:42:15;;;;;;;12.18;2.00;;;17.50;99.90;;;;;;5115428;28;20035;-80
2022/11/17 00:44:41;;;;;;;12.27;1.88;;;17.50;99.90;;;;;;5115797;28;20015;-81
2022/11/17 00:47:07;;;;;;;10.15;1.75;;;17.50;99.90;;;;;;5115490;28;20024;-80
2022/11/17 00:49:33;;;;;;;11.40;1.93;;;17.60;99.90;;;;;;5115803;28;20020;-81
2022/11/17 00:51:59;;;;;;;14.32;2.33;;;17.60;99.90;;;;;;5096655;28;20269;-80
2022/11/17 00:54:25;;;;;;;12.05;1.67;;;17.70;99.90;;;;;;5115611;28;20039;-80
2022/11/17 00:56:51;;;;;;;12.13;2.15;;;17.70;99.90;;;;;;5115612;28;20069;-80
2022/11/17 00:59:17;;;;;;;13.25;2.15;;;17.70;99.90;;;;;;5115499;28;20038;-80
2022/11/17 01:01:44;;;;;;;13.93;2.13;;;17.80;99.90;;;;;;5096763;28;20115;-80
2022/11/17 01:04:12;;;;;;;16.05;2.42;;;17.80;99.90;;;;;;5115421;28;20031;-80
2022/11/17 01:06:44;;;;;;;13.25;2.53;;;17.80;99.90;;;;;;5115069;28;20055;-81
2022/11/17 01:09:21;;;;;;;8.80;1.70;;;17.80;99.90;;;;;;5115556;28;20538;-80
2022/11/17 01:11:49;;;;;;;13.52;1.98;;;17.80;99.90;;;;;;5115344;28;20197;-80
2022/11/17 01:14:21;;;;;;;13.68;2.13;;;17.90;99.90;;;;;;5114728;28;20544;-80
2022/11/17 01:16:47;;;;;;;12.27;1.90;;;17.90;99.90;;;;;;5114255;28;20360;-80
2022/11/17 01:19:15;;;;;;;15.40;2.50;;;17.90;99.90;;;;;;5115260;28;20107;-80
2022/11/17 01:21:41;;;;;;;15.23;2.03;;;17.90;99.90;;;;;;5114746;28;20016;-81
2022/11/17 01:24:10;;;;;;;13.38;2.95;;;17.90;99.90;;;;;;5115224;28;20431;-80
2022/11/17 01:26:38;;;;;;;16.75;2.45;;;17.80;99.90;;;;;;5114770;28;20168;-80
2022/11/17 01:29:06;;;;;;;12.57;2.03;;;17.80;99.90;;;;;;5114678;28;20031;-81
2022/11/17 01:31:38;;;;;;;18.30;2.20;;;17.80;99.90;;;;;;5114641;28;20020;-80
2022/11/17 01:34:05;;;;;;;16.67;2.55;;;17.80;99.90;;;;;;5114920;28;20344;-80
2022/11/17 01:37:20;;;;;;;;;;;17.80;99.90;;;;;;5115081;28;20379;-80
2022/11/17 01:39:25;;;;;;;8.75;2.10;;;17.80;99.90;;;;;;5100200;28;20371;-81
2022/11/17 01:41:52;;;;;;;19.13;3.10;;;17.80;99.90;;;;;;5114583;28;20097;-80
2022/11/17 01:44:36;;;;;;;16.40;2.50;;;17.70;99.90;;;;;;5114842;28;20034;-80
2022/11/17 01:47:05;;;;;;;18.20;2.22;;;17.70;99.90;;;;;;5114644;28;20418;-81
2022/11/17 01:49:31;;;;;;;12.70;1.73;;;17.70;99.90;;;;;;5114314;28;20042;-80
2022/11/17 01:52:05;;;;;;;16.42;2.65;;;17.70;99.90;;;;;;5096739;28;20088;-80
2022/11/17 01:54:34;;;;;;;13.75;2.13;;;17.80;99.90;;;;;;5114968;28;20047;-80
2022/11/17 01:57:06;;;;;;;10.13;2.08;;;17.80;99.90;;;;;;5114154;28;20419;-81
2022/11/17 01:59:38;;;;;;;12.52;2.13;;;17.70;99.90;;;;;;5114613;28;20024;-80
2022/11/17 02:02:04;;;;;;;15.00;1.98;;;17.70;99.90;;;;;;5114693;28;20084;-80
2022/11/17 02:04:46;;;;;;;14.27;2.05;;;17.80;99.90;;;;;;5114416;28;20034;-80
2022/11/17 02:07:22;;;;;;;11.05;1.85;;;17.70;99.90;;;;;;5114401;28;20080;-79
2022/11/17 02:09:49;;;;;;;19.17;2.53;;;17.70;99.90;;;;;;5113965;28;20047;-80
2022/11/17 02:12:16;;;;;;;19.05;2.50;;;17.70;99.90;;;;;;5114178;28;20024;-80
2022/11/17 02:14:44;;;;;;;9.68;1.52;;;17.70;99.90;;;;;;5113732;28;20110;-80
2022/11/17 02:17:11;;;;;;;11.45;1.52;;;17.70;99.90;;;;;;5113737;28;20026;-80
2022/11/17 02:19:38;;;;;;;;;;;17.70;99.90;;;;;;5113992;28;20024;-80
2022/11/17 02:22:39;;;;;;;14.50;1.90;;;17.70;99.90;;;;;;5114178;28;19904;-80
2022/11/17 02:25:20;;;;;;;10.38;1.70;;;17.70;99.90;;;;;;5114084;28;20111;-80
2022/11/17 02:27:59;;;;;;;8.95;1.60;;;17.80;99.90;;;;;;5114044;28;20119;-80
2022/11/17 02:30:37;;;;;;;10.40;1.70;;;17.80;99.90;;;;;;5113973;28;20031;-81
2022/11/17 02:33:46;;;;;;;10.85;1.65;;;17.70;99.90;;;;;;5095767;28;20043;-80
2022/11/17 02:36:45;;;;;;;7.25;1.30;;;17.70;99.90;;;;;;5113432;28;20371;-81
2022/11/17 02:39:20;;;;;;;10.63;1.40;;;17.60;99.90;;;;;;5010968;28;20033;-80
2022/11/17 02:42:06;;;;;;;11.65;1.70;;;17.60;99.90;;;;;;5011432;28;20061;-80
2022/11/17 02:44:36;;;;;;;;;;;17.60;99.90;;;;;;5011383;28;20180;-81
2022/11/17 02:47:22;;;;;;;10.77;1.50;;;17.70;99.90;;;;;;5010625;28;20377;-80
2022/11/17 02:50:09;;;;;;;8.98;1.42;;;17.70;99.90;;;;;;5010922;28;20037;-80
2022/11/17 02:52:36;;;;;;;10.43;1.48;;;17.70;99.90;;;;;;5010754;28;20072;-80
2022/11/17 02:55:03;;;;;;;;;;;17.70;99.90;;;;;;5011088;28;20052;-81
2022/11/17 02:57:31;;;;;;;9.15;1.75;;;17.70;99.90;;;;;;5010500;28;20037;-80
2022/11/17 03:00:04;;;;;;;13.48;1.80;;;17.70;99.90;;;;;;5010908;28;20112;-80
2022/11/17 03:02:48;;;;;;;7.43;1.58;;;17.70;99.90;;;;;;5010713;28;20042;-80
2022/11/17 03:05:24;;;;;;;17.08;1.80;;;17.70;99.90;;;;;;5010861;28;20057;-80
2022/11/17 03:08:09;;;;;;;14.15;1.73;;;17.80;99.90;;;;;;5010500;28;20530;-79
2022/11/17 03:10:56;;;;;;;8.27;1.50;;;17.70;99.90;;;;;;4993650;28;20058;-81
2022/11/17 03:13:40;;;;;;;17.20;1.88;;;17.70;99.90;;;;;;5010801;28;20034;-80
2022/11/17 03:16:32;;;;;;;10.52;1.42;;;17.70;99.90;;;;;;5071643;28;20044;-80
2022/11/17 03:19:11;;;;;;;13.15;1.90;;;17.80;99.90;;;;;;5090856;28;20433;-78
2022/11/17 03:21:45;;;;;;;14.70;2.00;;;17.70;99.90;;;;;;5074024;28;20035;-79
2022/11/17 03:24:32;;;;;;;12.48;1.75;;;17.70;99.90;;;;;;5092035;28;20103;-81
2022/11/17 03:27:10;;;;;;;9.52;1.33;;;17.70;99.90;;;;;;5091757;28;20032;-80
2022/11/17 03:29:41;;;;;;;9.95;1.60;;;17.70;99.90;;;;;;5091850;28;20028;-80
2022/11/17 03:32:09;;;;;;;11.18;1.45;;;17.70;99.90;;;;;;5092014;28;20428;-80
2022/11/17 03:34:44;;;;;;;16.08;1.60;;;17.70;99.90;;;;;;5091399;28;20031;-80
2022/11/17 03:37:14;;;;;;;15.48;2.15;;;17.70;99.90;;;;;;5091690;28;20116;-80
2022/11/17 03:39:50;;;;;;;13.88;1.88;;;17.70;99.90;;;;;;5092544;28;20016;-80
2022/11/17 03:42:25;;;;;;;11.73;1.70;;;17.70;99.90;;;;;;5098703;28;20020;-80
2022/11/17 03:45:06;;;;;;;12.98;1.55;;;17.70;99.90;;;;;;5098698;28;20028;-80
2022/11/17 03:47:34;;;;;;;14.23;2.13;;;17.70;99.90;;;;;;5098659;28;20028;-80
2022/11/17 03:50:07;;;;;;;11.40;1.48;;;17.70;99.90;;;;;;5098544;28;20016;-81
2022/11/17 03:52:35;;;;;;;13.48;1.70;;;17.80;99.90;;;;;;5098774;28;20028;-80
2022/11/17 03:55:02;;;;;;;14.98;1.70;;;17.80;99.90;;;;;;5098683;28;20044;-79
2022/11/17 03:57:43;;;;;;;14.07;2.20;;;17.80;99.90;;;;;;5098475;28;20024;-80
2022/11/17 04:00:15;;;;;;;10.82;1.50;;;17.80;99.90;;;;;;5098727;28;20384;-80
2022/11/17 04:02:42;;;;;;;14.23;1.85;;;17.80;99.90;;;;;;5098802;28;20107;-80
2022/11/17 04:05:10;;;;;;;14.30;2.08;;;17.80;99.90;;;;;;5080059;28;20060;-80
2022/11/17 04:07:44;;;;;;;9.25;2.00;;;17.80;99.90;;;;;;5080659;28;20051;-80
2022/11/17 04:10:18;;;;;;;10.32;1.60;;;17.90;99.90;;;;;;5106734;28;20067;-80
2022/11/17 04:18:14;;;;;;;15.50;1.83;;;17.90;99.90;;;;;;5119068;28;20096;-79
2022/11/17 04:20:41;;;;;;;13.30;2.08;;;17.90;99.90;;;;;;5118930;28;20062;-80
2022/11/17 04:23:13;;;;;;;11.32;1.70;;;17.90;99.90;;;;;;5119257;28;20094;-80
2022/11/17 04:28:36;;;;;;;15.10;1.95;;;17.90;99.90;;;;;;5119923;28;20035;-80
2022/11/17 04:31:17;;;;;;;12.90;2.28;;;17.90;99.90;;;;;;5119519;28;20034;-80
2022/11/17 04:33:48;;;;;;;11.75;2.10;;;17.80;99.90;;;;;;5119549;28;20038;-80
2022/11/17 04:36:17;;;;;;;14.00;1.77;;;17.80;99.90;;;;;;5100990;28;20059;-80
2022/11/17 04:38:45;;;;;;;12.82;2.00;;;17.80;99.90;;;;;;5119963;28;20103;-80
2022/11/17 04:43:58;;;;;;;12.20;1.95;;;17.90;99.90;;;;;;5119795;28;20499;-80
2022/11/17 04:46:25;;;;;;;13.48;2.22;;;17.90;99.90;;;;;;5119381;28;20111;-81
2022/11/17 04:48:54;;;;;;;19.13;2.22;;;17.90;99.90;;;;;;5106157;28;20099;-81
2022/11/17 04:51:20;;;;;;;18.50;2.17;;;17.90;99.90;;;;;;5114131;28;20023;-81
2022/11/17 04:53:47;;;;;;;18.02;2.22;;;17.90;99.90;;;;;;5115717;28;20031;-79
2022/11/17 04:56:14;;;;;;;15.02;2.17;;;17.90;99.90;;;;;;5116395;28;20028;-80
2022/11/17 04:58:41;;;;;;;15.57;2.30;;;17.90;99.90;;;;;;5115700;28;20105;-80
2022/11/17 05:01:17;;;;;;;15.85;2.17;;;18.00;99.90;;;;;;5115730;28;20019;-81
2022/11/17 05:03:51;;;;;;;18.42;2.67;;;18.00;99.90;;;;;;5116191;28;20075;-80
2022/11/17 05:06:33;;;;;;;16.00;2.40;;;18.00;99.90;;;;;;5097291;28;20333;-79
2022/11/17 05:09:02;;;;;;;16.20;2.47;;;18.00;99.90;;;;;;5115412;28;20047;-79
2022/11/17 05:14:18;;;;;;;14.37;2.17;;;18.00;99.90;;;;;;5115251;28;20061;-81
2022/11/17 05:19:31;;;;;;;11.05;1.95;;;18.00;99.90;;;;;;5116104;28;20034;-81
2022/11/17 05:21:57;;;;;;;14.13;2.20;;;18.10;99.90;;;;;;5116207;28;20015;-80
2022/11/17 05:24:24;;;;;;;17.95;2.53;;;18.10;99.90;;;;;;5116153;28;20042;-81
2022/11/17 05:26:50;;;;;;;12.60;1.92;;;18.00;99.90;;;;;;5116038;28;20047;-80
2022/11/17 05:29:19;;;;;;;15.75;2.20;;;18.10;99.90;;;;;;5115869;28;20027;-80
2022/11/17 05:31:46;;;;;;;17.50;2.42;;;18.00;99.90;;;;;;5115636;28;20031;-80
2022/11/17 05:34:12;;;;;;;;;;;18.00;99.90;;;;;;5115786;28;20066;-81
2022/11/17 05:36:39;;;;;;;14.75;2.42;;;18.00;99.90;;;;;;5115282;28;19911;-80
2022/11/17 05:39:07;;;;;;;13.55;2.50;;;17.90;99.90;;;;;;5115836;28;20031;-80
2022/11/17 05:41:33;;;;;;;11.32;2.70;;;18.00;99.90;;;;;;5115836;28;20019;-79
2022/11/17 05:43:59;;;;;;;13.45;2.17;;;17.90;99.90;;;;;;5115235;28;20016;-81
2022/11/17 05:46:26;;;;;;;17.70;2.40;;;18.00;99.90;;;;;;5115151;28;20476;-81
2022/11/17 05:48:52;;;;;;;11.02;2.28;;;17.90;99.90;;;;;;5115538;28;20478;-80
2022/11/17 05:51:22;;;;;;;17.75;2.25;;;17.90;99.90;;;;;;5114661;28;20091;-79
2022/11/17 05:53:49;;;;;;;9.63;2.20;;;17.90;99.90;;;;;;5114700;28;20031;-80
2022/11/17 05:56:33;;;;;;;14.48;2.50;;;17.80;99.90;;;;;;5114743;28;20041;-80
2022/11/17 05:59:24;;;;;;;10.45;1.88;;;17.80;99.90;;;;;;5115133;28;20027;-78
2022/11/17 06:02:20;;;;;;;12.82;2.35;;;17.80;99.90;;;;;;5114678;28;20088;-79
2022/11/17 06:04:49;;;;;;;11.55;1.85;;;17.80;99.90;;;;;;5109335;28;20414;-79
2022/11/17 06:07:16;;;;;;;11.25;2.22;;;17.80;99.90;;;;;;5114665;28;20027;-78
2022/11/17 06:09:42;;;;;;;17.45;2.03;;;17.80;99.90;;;;;;5114568;28;20047;-79
2022/11/17 06:12:10;;;;;;;11.77;2.20;;;17.90;99.90;;;;;;5114463;28;20020;-78
2022/11/17 06:14:38;;;;;;;11.63;1.88;;;18.00;99.90;;;;;;5095731;28;20035;-79
2022/11/17 06:17:16;;;;;;;15.27;2.13;;;18.10;99.90;;;;;;5114148;28;20020;-79
2022/11/17 06:19:48;;;;;;;13.68;2.00;;;18.20;99.90;;;;;;5114375;28;20028;-79
2022/11/17 06:22:14;;;;;;;9.68;1.90;;;18.40;99.90;;;;;;5114669;28;20015;-79
2022/11/17 06:24:43;;;;;;;16.70;2.28;;;18.50;99.90;;;;;;5114866;28;20027;-78
2022/11/17 06:27:12;;;;;;;10.65;2.30;;;18.60;99.90;;;;;;5113974;28;20356;-79
2022/11/17 06:29:38;;;;;;;11.00;1.88;;;18.60;99.90;;;;;;5114073;28;20031;-80
2022/11/17 06:32:04;;;;;;;13.43;1.95;;;18.60;99.90;;;;;;5113541;28;20019;-79
2022/11/17 06:34:33;;;;;;;9.70;1.98;;;18.60;99.90;;;;;;5113106;28;20032;-80
2022/11/17 06:36:59;;;;;;;11.43;2.10;;;18.70;99.90;;;;;;5113326;28;20027;-80
2022/11/17 06:39:25;;;;;;;9.27;1.80;;;18.80;99.90;;;;;;5113461;28;20028;-80
2022/11/17 06:41:51;;;;;;;15.80;2.47;;;18.80;99.90;;;;;;5112957;28;20035;-80
2022/11/17 06:44:17;;;;;;;15.40;2.80;;;18.80;99.90;;;;;;5112675;28;20016;-80
2022/11/17 06:46:43;;;;;;;11.32;1.85;;;18.80;99.90;;;;;;5112964;28;20028;-80
2022/11/17 06:49:09;;;;;;;12.38;2.05;;;18.70;99.90;;;;;;5112829;28;20024;-80
2022/11/17 06:51:35;;;;;;;11.02;2.17;;;18.60;99.90;;;;;;5112242;28;20446;-80
2022/11/17 06:54:02;;;;;;;15.10;2.00;;;18.60;99.90;;;;;;5111823;28;20088;-79
2022/11/17 06:56:29;;;;;;;9.05;1.63;;;18.70;99.90;;;;;;5111824;28;20103;-79
2022/11/17 06:58:55;;;;;;;10.68;2.08;;;18.70;99.90;;;;;;5112783;28;20031;-79
2022/11/17 07:01:21;;;;;;;11.65;2.05;;;18.60;99.90;;;;;;5112057;28;20094;-80
2022/11/17 07:03:47;;;;;;;13.45;2.47;;;18.60;99.90;;;;;;5112102;28;20406;-80
2022/11/17 07:06:15;;;;;;;12.98;2.83;;;18.60;99.90;;;;;;5112129;28;20053;-80
2022/11/17 07:08:41;;;;;;;14.82;2.72;;;18.60;99.90;;;;;;5113157;28;20167;-79
2022/11/17 07:11:10;;;;;;;12.90;2.65;;;18.60;99.90;;;;;;5094225;28;20138;-80
2022/11/17 07:13:37;;;;;;;12.27;2.30;;;18.60;99.90;;;;;;5112576;28;20104;-81
2022/11/17 07:16:12;;;;;;;12.32;2.42;;;18.60;99.90;;;;;;5111277;28;20356;-81
2022/11/17 07:18:40;;;;;;;11.57;3.10;;;18.60;99.90;;;;;;5112995;28;20027;-79
2022/11/17 07:21:09;;;;;;;14.43;3.30;;;18.60;99.90;;;;;;5113308;28;20027;-78
2022/11/17 07:23:36;;;;;;;12.90;3.25;;;18.50;99.90;;;;;;5112323;28;20015;-79
2022/11/17 07:26:02;;;;;;;7.93;3.25;;;18.50;99.90;;;;;;5112418;28;20058;-79
2022/11/17 07:28:28;;;;;;;;;;;18.50;99.90;;;;;;5111439;28;20169;-80
2022/11/17 07:30:55;;;;;;;13.68;3.72;;;18.40;99.90;;;;;;5094239;28;19922;-84
2022/11/17 07:33:21;;;;;;;11.05;3.80;;;18.50;99.90;;;;;;5074804;28;20020;-77
2022/11/17 07:35:48;;;;;;;12.27;4.18;;;18.70;99.90;;;;;;5092095;28;20040;-79
2022/11/17 07:38:14;;;;;;;12.75;3.72;;;18.90;99.90;;;;;;5092298;28;20020;-79
2022/11/17 07:40:40;;;;;;;12.70;3.45;;;19.20;99.90;;;;;;5092686;28;20106;-78
2022/11/17 07:43:06;;;;;;;8.95;3.30;;;19.40;99.90;;;;;;5097155;28;20016;-78
2022/11/17 07:45:32;;;;;;;11.63;3.55;;;19.70;99.90;;;;;;5111591;28;20024;-78
2022/11/17 07:48:01;;;;;;;8.82;3.00;;;20.20;99.90;;;;;;5111693;28;20020;-79
2022/11/17 07:50:28;;;;;;;8.43;2.85;;;20.60;99.90;;;;;;5093388;28;20035;-80
2022/11/17 07:52:56;;;;;;;11.75;3.38;;;20.80;99.90;;;;;;5112033;28;20434;-79
2022/11/17 07:55:24;;;;;;;14.23;3.42;;;20.90;99.90;;;;;;5111600;28;20084;-79
2022/11/17 07:58:00;;;;;;;10.82;2.80;;;21.00;99.90;;;;;;5111880;28;20034;-79
2022/11/17 08:00:28;;;;;;;9.40;3.13;;;20.90;99.90;;;;;;5111649;28;20073;-80
2022/11/17 08:02:55;;;;;;;14.60;3.03;;;20.70;99.90;;;;;;5111703;28;20093;-79
2022/11/17 08:05:21;;;;;;;;;;;20.50;99.90;;;;;;5112580;28;20032;-79
2022/11/17 08:07:59;;;;;;;12.98;2.88;;;20.40;99.90;;;;;;5111706;28;20262;-78
2022/11/17 08:10:29;;;;;;;13.57;3.47;;;20.40;99.90;;;;;;5111519;28;20050;-79
2022/11/17 08:12:57;;;;;;;15.65;3.20;;;20.30;99.90;;;;;;5102385;28;20337;-78
2022/11/17 08:15:23;;;;;;;12.63;2.85;;;20.20;99.90;;;;;;5111467;28;20032;-79
2022/11/17 08:17:54;;;;;;;18.33;3.40;;;20.20;99.90;;;;;;5111719;28;20034;-79
2022/11/17 08:20:20;;;;;;;10.98;2.75;;;20.00;99.90;;;;;;5111262;28;20220;-77
2022/11/17 08:22:48;;;;;;;;;;;19.90;99.90;;;;;;5111457;28;20168;-78
2022/11/17 08:25:14;;;;;;;12.38;3.92;;;19.80;99.90;;;;;;5111398;28;20002;-78
2022/11/17 08:27:40;;;;;;;16.67;5.60;;;19.70;99.90;;;;;;5096002;28;20035;-77
2022/11/17 08:30:08;;;;;;;15.38;5.32;;;19.80;99.90;;;;;;5115595;28;20019;-77
2022/11/17 08:32:35;;;;;;;15.35;4.95;;;19.70;99.90;;;;;;5115165;28;20111;-78
2022/11/17 08:35:02;;;;;;;;;;;19.80;99.90;;;;;;5096706;28;20043;-78
2022/11/17 08:37:29;;;;;;;12.50;3.15;;;19.80;99.90;;;;;;5114880;28;19937;-79
2022/11/17 08:39:55;;;;;;;10.85;3.63;;;19.90;99.90;;;;;;5114697;28;20045;-78
2022/11/17 08:42:21;;;;;;;22.23;6.43;;;19.90;99.90;;;;;;5115057;28;20043;-78
2022/11/17 08:44:48;;;;;;;26.45;10.68;;;19.80;99.90;;;;;;5115276;28;20580;-78
2022/11/17 08:47:14;;;;;;;34.60;13.43;;;19.80;99.90;;;;;;5114823;28;20031;-78
2022/11/17 08:49:40;;;;;;;28.02;13.65;;;19.80;99.90;;;;;;5114724;28;20065;-76
2022/11/17 08:52:06;;;;;;;27.70;13.40;;;19.70;99.90;;;;;;5114380;28;20041;-76
2022/11/17 08:54:32;;;;;;;26.58;12.55;;;19.80;99.90;;;;;;5114173;28;20039;-75
2022/11/17 08:56:58;;;;;;;18.40;8.63;;;19.80;99.90;;;;;;5114596;28;20103;-76
2022/11/17 08:59:25;;;;;;;;;;;19.90;99.90;;;;;;5114173;28;20099;-76
2022/11/17 09:01:51;;;;;;;;;;;19.80;99.90;;;;;;5114286;28;19923;-75
2022/11/17 09:04:17;;;;;;;16.45;5.05;;;19.80;99.90;;;;;;5114149;28;19908;-75
2022/11/17 09:06:43;;;;;;;14.95;5.45;;;19.80;99.90;;;;;;5114344;28;20162;-76
2022/11/17 09:09:09;;;;;;;12.27;3.97;;;19.70;99.90;;;;;;5114161;28;20034;-74
2022/11/17 09:11:35;;;;;;;13.05;4.00;;;19.70;99.90;;;;;;5113617;28;20044;-77
2022/11/17 09:14:01;;;;;;;13.18;3.63;;;19.80;99.90;;;;;;5114188;28;20046;-75
2022/11/17 09:16:27;;;;;;;16.10;4.28;;;19.90;99.90;;;;;;5114131;28;20076;-76
2022/11/17 09:18:55;;;;;;;13.68;5.25;;;20.10;99.90;;;;;;5114532;28;20106;-77
2022/11/17 09:21:21;;;;;;;15.88;5.30;;;20.10;99.90;;;;;;5095390;28;20107;-77
2022/11/17 09:23:47;;;;;;;16.58;5.30;;;20.20;99.90;;;;;;5113988;28;20019;-76
2022/11/17 09:26:21;;;;;;;16.90;5.38;;;20.20;99.90;;;;;;5114014;28;20078;-76
2022/11/17 09:28:47;;;;;;;16.95;6.47;;;20.20;99.90;;;;;;5114701;28;20077;-72
2022/11/17 09:31:15;;;;;;;;;;;20.40;99.90;;;;;;5099643;28;20031;-77
2022/11/17 09:33:41;;;;;;;15.63;4.35;;;20.70;99.90;;;;;;5083440;28;19904;-77
2022/11/17 09:36:08;;;;;;;;;;;20.90;99.90;;;;;;5088220;28;20028;-76
2022/11/17 09:38:35;;;;;;;13.80;2.63;;;21.20;99.90;;;;;;5089986;28;19908;-77
2022/11/17 09:41:22;;;;;;;14.35;3.03;;;21.30;99.90;;;;;;5093709;28;20076;-76
2022/11/17 09:44:09;;;;;;;11.48;2.28;;;21.20;99.90;;;;;;5093582;28;20092;-76
2022/11/17 09:47:09;;;;;;;8.55;2.42;;;21.30;99.90;;;;;;5093799;28;20028;-75
2022/11/17 09:49:51;;;;;;;10.88;2.72;;;21.50;99.90;;;;;;5093131;28;20047;-76
2022/11/17 09:52:47;;;;;;;13.73;3.50;;;21.60;99.90;;;;;;5093239;28;20025;-76
2022/11/17 09:55:13;;;;;;;10.07;2.35;;;21.70;99.90;;;;;;5093055;28;20035;-76
2022/11/17 09:57:57;;;;;;;14.38;2.70;;;21.50;99.90;;;;;;5093144;28;20020;-76
2022/11/17 10:00:24;;;;;;;10.68;2.47;;;21.50;99.90;;;;;;5093097;28;20088;-75
2022/11/17 10:02:51;;;;;;;9.45;2.05;;;21.50;99.90;;;;;;5093106;28;20059;-77
2022/11/17 10:05:23;;;;;;;9.77;2.22;;;21.50;99.90;;;;;;5092681;28;20433;-75
2022/11/17 10:07:52;;;;;;;13.55;2.55;;;21.60;99.90;;;;;;5092939;28;20103;-76
2022/11/17 10:10:33;;;;;;;9.70;2.00;;;21.40;99.90;;;;;;5092494;28;20043;-76
2022/11/17 10:13:03;;;;;;;11.93;2.38;;;21.30;99.90;;;;;;5093096;28;20024;-75
2022/11/17 10:15:56;;;;;;;15.60;2.70;;;21.10;99.90;;;;;;5092602;28;20146;-74
2022/11/17 10:18:22;;;;;;;14.73;2.30;;;21.00;99.90;;;;;;5084449;28;20039;-75
2022/11/17 10:20:50;;;;;;;19.77;3.45;;;21.10;99.90;;;;;;5092741;28;20110;-76
2022/11/17 10:23:18;;;;;;;14.63;2.47;;;21.10;99.90;;;;;;5092617;28;20031;-75
2022/11/17 10:25:55;;;;;;;11.40;2.65;;;21.20;99.90;;;;;;5092498;28;20023;-76
2022/11/17 10:28:27;;;;;;;12.52;2.08;;;21.30;99.90;;;;;;5092863;28;20349;-76
2022/11/17 10:31:02;;;;;;;12.57;2.55;;;21.60;99.90;;;;;;5092460;28;20402;-76
2022/11/17 10:33:41;;;;;;;16.88;3.80;;;21.70;99.90;;;;;;5092456;28;20028;-75
2022/11/17 10:36:33;;;;;;;20.10;3.97;;;21.70;99.90;;;;;;5092772;28;20115;-76
2022/11/17 10:39:00;;;;;;;16.92;3.50;;;21.90;99.90;;;;;;5089664;28;20055;-75
2022/11/17 10:41:40;;;;;;;11.77;3.10;;;22.10;99.90;;;;;;5092516;28;20024;-74
2022/11/17 10:44:24;;;;;;;13.65;3.03;;;22.30;99.90;;;;;;5085982;28;20100;-76
2022/11/17 10:46:54;;;;;;;12.45;2.53;;;22.30;99.90;;;;;;5105742;28;20114;-76
2022/11/17 10:49:27;;;;;;;10.52;2.22;;;22.50;99.90;;;;;;5102294;28;20096;-75
2022/11/17 10:52:11;;;;;;;14.05;2.70;;;22.60;99.90;;;;;;5110210;28;20050;-75
2022/11/17 10:54:37;;;;;;;13.07;2.67;;;22.80;99.90;;;;;;5112156;28;20040;-75
2022/11/17 10:57:19;;;;;;;15.32;2.85;;;23.20;99.90;;;;;;5093817;28;20035;-75
2022/11/17 10:59:49;;;;;;;17.33;2.28;;;23.30;99.90;;;;;;5091953;28;20356;-75
2022/11/17 11:02:33;;;;;;;10.75;2.70;;;23.60;99.90;;;;;;5091753;28;20044;-74
2022/11/17 11:05:12;;;;;;;11.88;2.50;;;23.80;99.90;;;;;;5091587;28;20028;-76
2022/11/17 11:07:39;;;;;;;9.00;2.10;;;24.10;99.90;;;;;;5091783;28;20031;-76
2022/11/17 11:10:16;;;;;;;12.30;2.30;;;24.30;99.90;;;;;;5091053;28;20052;-75
2022/11/17 11:13:05;;;;;;;7.47;2.20;;;23.80;99.90;;;;;;5111200;28;20035;-75
2022/11/17 11:15:34;;;;;;;9.45;2.10;;;23.60;99.90;;;;;;5111737;28;20031;-76
2022/11/17 11:18:02;;;;;;;10.77;2.10;;;23.20;99.90;;;;;;5111836;28;20028;-76
2022/11/17 11:21:06;;;;;;;10.35;2.42;;;23.30;99.90;;;;;;5111521;28;20028;-76
2022/11/17 11:24:16;;;;;;;11.05;2.50;;;23.30;99.90;;;;;;5112111;28;20494;-76
2022/11/17 11:27:14;;;;;;;12.63;2.33;;;23.10;99.90;;;;;;5106817;28;20118;-76
2022/11/17 11:30:01;;;;;;;15.57;2.78;;;22.50;99.90;;;;;;5092234;28;20346;-75
2022/11/17 11:32:47;;;;;;;13.38;1.98;;;21.90;99.90;;;;;;5092263;28;20097;-77
2022/11/17 11:35:43;;;;;;;12.95;2.63;;;21.40;99.90;;;;;;5075209;28;20048;-76
2022/11/17 11:38:47;;;;;;;9.75;3.10;;;21.50;99.90;;;;;;5072257;28;20024;-78
2022/11/17 11:41:16;;;;;;;11.90;2.63;;;21.70;99.90;;;;;;5071380;28;20020;-77
2022/11/17 11:44:01;;;;;;;10.95;2.20;;;21.70;99.90;;;;;;5053571;28;20037;-75
2022/11/17 11:46:55;;;;;;;13.88;2.85;;;21.70;99.90;;;;;;5081464;28;20023;-75
2022/11/17 11:49:43;;;;;;;12.27;2.25;;;21.50;99.90;;;;;;5076006;28;20044;-74
2022/11/17 11:52:15;;;;;;;11.60;2.13;;;21.50;99.90;;;;;;5071236;28;20029;-76
2022/11/17 11:54:46;;;;;;;8.15;2.30;;;21.40;99.90;;;;;;5071801;28;20100;-75
2022/11/17 11:57:17;;;;;;;9.77;2.20;;;21.20;99.90;;;;;;5053654;28;20166;-75
2022/11/17 11:59:52;;;;;;;37.85;5.38;;;21.30;99.90;;;;;;5071588;28;20476;-75
2022/11/17 12:02:37;;;;;;;9.30;1.98;;;21.40;99.90;;;;;;5073508;28;20030;-74
2022/11/17 12:05:21;;;;;;;16.60;3.20;;;21.30;99.90;;;;;;5054990;28;20341;-76
2022/11/17 12:08:02;;;;;;;11.77;2.58;;;21.30;99.90;;;;;;5055626;28;20500;-76
2022/11/17 12:10:34;;;;;;;13.82;2.72;;;21.50;99.90;;;;;;5074058;28;20052;-76
2022/11/17 12:13:02;;;;;;;13.13;2.65;;;21.60;99.90;;;;;;5074180;28;20073;-76
2022/11/17 12:15:32;;;;;;;15.93;3.13;;;21.90;99.90;;;;;;5073843;28;20502;-78
2022/11/17 12:18:02;;;;;;;12.80;2.63;;;22.10;99.90;;;;;;5074516;28;20032;-79
2022/11/17 12:20:38;;;;;;;13.98;3.25;;;22.10;99.90;;;;;;5074329;28;20434;-79
2022/11/17 12:23:26;;;;;;;15.57;2.87;;;22.20;99.90;;;;;;5074902;28;20039;-77
2022/11/17 12:25:58;;;;;;;22.08;2.72;;;22.30;99.90;;;;;;5075008;28;20028;-77
2022/11/17 12:28:40;;;;;;;18.15;2.90;;;22.50;99.90;;;;;;5074674;28;20030;-78
2022/11/17 12:31:11;;;;;;;12.68;2.33;;;22.70;99.90;;;;;;5074381;28;20597;-78
2022/11/17 12:33:52;;;;;;;13.77;2.65;;;23.00;99.90;;;;;;5074190;28;20057;-78
2022/11/17 12:36:31;;;;;;;13.98;2.38;;;23.30;99.90;;;;;;5074201;28;20040;-78
2022/11/17 12:39:02;;;;;;;16.30;2.45;;;23.70;99.90;;;;;;5075070;28;20372;-78
2022/11/17 12:41:49;;;;;;;14.60;2.67;;;23.90;99.90;;;;;;5056434;28;20034;-78
2022/11/17 12:44:37;;;;;;;9.48;2.45;;;24.00;99.90;;;;;;5074670;28;20078;-78
2022/11/17 12:47:21;;;;;;;12.35;2.30;;;24.10;99.90;;;;;;5074427;28;20028;-79
2022/11/17 12:50:05;;;;;;;15.00;2.25;;;24.30;99.90;;;;;;5074483;28;20032;-78
2022/11/17 12:53:03;;;;;;;15.80;2.45;;;24.40;99.90;;;;;;5074851;28;20054;-78
2022/11/17 12:55:28;;;;;;;14.63;2.75;;;24.60;99.90;;;;;;5095629;28;20043;-78
2022/11/17 12:58:18;;;;;;;18.27;2.42;;;24.40;99.90;;;;;;5094679;28;20020;-79
2022/11/17 13:01:25;;;;;;;15.18;2.35;;;24.30;99.90;;;;;;5075645;28;20032;-78
2022/11/17 13:04:07;;;;;;;16.67;2.25;;;24.00;99.90;;;;;;5094103;28;20020;-78
2022/11/17 13:06:33;;;;;;;12.15;2.30;;;23.40;99.90;;;;;;5094630;28;20036;-76
2022/11/17 13:09:07;;;;;;;20.95;2.63;;;23.30;99.90;;;;;;5109379;28;20159;-78
2022/11/17 13:11:34;;;;;;;14.68;2.28;;;23.10;99.90;;;;;;5107282;28;20365;-77
2022/11/17 13:14:12;;;;;;;14.38;2.40;;;23.10;99.90;;;;;;5113558;28;20040;-77
2022/11/17 13:16:50;;;;;;;16.98;2.60;;;23.10;99.90;;;;;;5115276;28;20031;-78
2022/11/17 13:19:40;;;;;;;15.65;2.47;;;23.10;99.90;;;;;;5115199;28;20039;-77
2022/11/17 13:22:17;;;;;;;15.73;2.58;;;23.10;99.90;;;;;;5115463;28;20036;-78
2022/11/17 13:24:47;;;;;;;12.88;2.05;;;23.20;99.90;;;;;;5102421;28;20028;-78
2022/11/17 13:27:30;;;;;;;12.57;2.10;;;23.10;99.90;;;;;;5094570;28;20075;-77
2022/11/17 13:30:23;;;;;;;11.63;2.13;;;23.00;99.90;;;;;;5095048;28;20114;-78
2022/11/17 13:32:49;;;;;;;21.17;2.97;;;23.00;99.90;;;;;;5095509;28;20056;-78
2022/11/17 13:35:32;;;;;;;10.00;2.13;;;23.10;99.90;;;;;;5095091;28;20417;-77
2022/11/17 13:38:19;;;;;;;18.73;2.78;;;23.30;99.90;;;;;;5095444;28;20028;-78